Time;durP1;ratioP1;P1;durP2;ratioP2;P2;SDS_P1;SDS_P2;PMS_P1;PMS_P2;Temp;Humidity;BMP_temperature;BMP_pressure;BME280_temperature;BME280_humidity;BME280_pressure;Samples;Min_cycle;Max_cycle;Signal;HPM_P1;HPM_P2
2022/03/08 00:01:18;;;;;;;0.50;0.50;;;1.20;99.90;;;;;;5238833;28;20379;-77
2022/03/08 00:03:52;;;;;;;0.45;0.45;;;1.20;99.90;;;;;;5246905;28;20032;-79
2022/03/08 00:06:29;;;;;;;0.40;0.40;;;1.20;99.90;;;;;;5234916;28;20372;-79
2022/03/08 00:09:03;;;;;;;0.30;0.30;;;1.10;99.90;;;;;;5229735;28;20067;-79
2022/03/08 00:11:37;;;;;;;0.40;0.40;;;1.10;99.90;;;;;;5222041;28;20521;-78
2022/03/08 00:14:17;;;;;;;0.40;0.40;;;1.10;99.90;;;;;;5254880;28;20055;-77
2022/03/08 00:16:49;;;;;;;0.40;0.40;;;1.00;99.90;;;;;;5241935;28;20036;-76
2022/03/08 00:19:20;;;;;;;0.75;0.75;;;1.00;99.90;;;;;;5232023;28;20112;-80
2022/03/08 00:21:57;;;;;;;0.40;0.40;;;1.00;99.90;;;;;;5243681;28;20034;-78
2022/03/08 00:24:32;;;;;;;0.50;0.50;;;1.00;99.90;;;;;;5266595;28;20047;-78
2022/03/08 00:27:06;;;;;;;0.65;0.65;;;0.90;99.90;;;;;;5262091;28;20039;-77
2022/03/08 00:29:37;;;;;;;0.40;0.40;;;0.90;99.90;;;;;;5248418;28;20035;-77
2022/03/08 00:32:11;;;;;;;0.40;0.40;;;0.80;99.90;;;;;;5246685;28;20039;-81
2022/03/08 00:34:45;;;;;;;1.55;1.50;;;0.80;99.90;;;;;;5230276;28;20026;-78
2022/03/08 00:37:22;;;;;;;0.40;0.40;;;0.80;99.90;;;;;;5237888;28;20038;-79
2022/03/08 00:39:56;;;;;;;0.60;0.60;;;0.70;99.90;;;;;;5261783;28;20062;-81
2022/03/08 00:42:31;;;;;;;0.50;0.50;;;0.80;99.90;;;;;;5263795;28;20373;-78
2022/03/08 00:45:09;;;;;;;0.90;0.90;;;0.80;99.90;;;;;;5252141;28;20269;-78
2022/03/08 00:47:44;;;;;;;0.57;0.57;;;0.80;99.90;;;;;;5231141;28;20039;-80
2022/03/08 00:50:28;;;;;;;0.77;0.77;;;0.80;99.90;;;;;;5245880;28;20044;-77
2022/03/08 00:53:00;;;;;;;0.55;0.55;;;0.80;99.90;;;;;;5263303;28;20036;-80
2022/03/08 00:55:33;;;;;;;0.30;0.30;;;0.70;99.90;;;;;;5267557;28;20040;-78
2022/03/08 00:58:11;;;;;;;0.30;0.30;;;0.60;99.90;;;;;;5252437;28;20048;-79
2022/03/08 01:00:45;;;;;;;0.73;0.73;;;0.60;99.90;;;;;;5250983;28;20100;-79
2022/03/08 01:03:22;;;;;;;0.40;0.40;;;0.60;99.90;;;;;;5226977;28;20058;-79
2022/03/08 01:06:00;;;;;;;0.73;0.73;;;0.60;99.90;;;;;;5244548;28;20646;-79
2022/03/08 01:08:33;;;;;;;0.95;0.95;;;0.60;99.90;;;;;;5240477;28;20221;-80
2022/03/08 01:11:12;;;;;;;0.70;0.70;;;0.70;99.90;;;;;;5212060;28;20050;-79
2022/03/08 01:13:49;;;;;;;0.60;0.60;;;0.70;99.90;;;;;;5246670;28;20046;-79
2022/03/08 01:16:24;;;;;;;0.60;0.60;;;0.60;99.90;;;;;;5211342;28;20040;-78
2022/03/08 01:18:56;;;;;;;0.70;0.70;;;0.70;99.90;;;;;;5236735;28;20036;-78
2022/03/08 01:21:28;;;;;;;0.65;0.65;;;0.60;99.90;;;;;;5244552;28;20054;-78
2022/03/08 01:24:00;;;;;;;0.63;0.63;;;0.60;99.90;;;;;;5216229;28;20039;-78
2022/03/08 01:26:31;;;;;;;1.27;1.27;;;0.60;99.90;;;;;;5252246;28;20047;-79
2022/03/08 01:29:06;;;;;;;0.63;0.63;;;0.60;99.90;;;;;;5260006;28;20042;-76
2022/03/08 01:31:37;;;;;;;0.80;0.80;;;0.50;99.90;;;;;;5265571;28;20024;-78
2022/03/08 01:34:14;;;;;;;1.30;1.25;;;0.50;99.90;;;;;;5229408;28;20036;-76
2022/03/08 01:36:54;;;;;;;0.40;0.40;;;0.50;99.90;;;;;;5250595;28;20016;-77
2022/03/08 01:39:30;;;;;;;0.60;0.60;;;0.50;99.90;;;;;;5249367;28;20032;-77
2022/03/08 01:42:11;;;;;;;0.50;0.50;;;0.50;99.90;;;;;;5247365;28;20028;-75
2022/03/08 01:44:48;;;;;;;0.40;0.40;;;0.50;99.90;;;;;;5244733;28;20330;-78
2022/03/08 01:47:23;;;;;;;0.60;0.60;;;0.40;99.90;;;;;;5256583;28;20071;-79
2022/03/08 01:49:56;;;;;;;0.50;0.50;;;0.40;99.90;;;;;;5245851;28;20051;-77
2022/03/08 01:52:30;;;;;;;0.40;0.40;;;0.20;99.90;;;;;;5240403;28;20048;-77
2022/03/08 01:55:05;;;;;;;0.52;0.52;;;0.10;99.90;;;;;;5241757;28;20036;-77
2022/03/08 01:57:42;;;;;;;0.40;0.40;;;0.10;99.90;;;;;;5241080;28;20046;-76
2022/03/08 02:00:20;;;;;;;0.40;0.40;;;0.10;99.90;;;;;;5224622;28;20046;-77
2022/03/08 02:02:57;;;;;;;0.80;0.80;;;0.10;99.90;;;;;;5239274;28;20059;-78
2022/03/08 02:05:32;;;;;;;3.00;2.78;;;0.10;99.90;;;;;;5226481;28;20044;-80
2022/03/08 02:08:05;;;;;;;0.50;0.50;;;0.20;99.90;;;;;;5240268;28;20459;-78
2022/03/08 02:10:37;;;;;;;;;;;0.20;99.90;;;;;;5244886;28;20048;-76
2022/03/08 02:13:11;;;;;;;0.50;0.50;;;0.30;99.90;;;;;;5261222;28;19913;-77
2022/03/08 02:15:51;;;;;;;0.65;0.65;;;0.30;99.90;;;;;;5247096;28;20027;-79
2022/03/08 02:18:25;;;;;;;0.57;0.57;;;0.20;99.90;;;;;;5242052;28;20028;-79
2022/03/08 02:21:09;;;;;;;0.52;0.52;;;0.20;99.90;;;;;;5259266;28;20324;-80
2022/03/08 02:23:41;;;;;;;0.70;0.70;;;0.10;99.90;;;;;;5251115;28;20097;-78
2022/03/08 02:26:15;;;;;;;0.40;0.40;;;0.00;99.90;;;;;;5255910;28;20024;-78
2022/03/08 02:28:46;;;;;;;1.08;1.08;;;0.10;99.90;;;;;;5228497;28;20058;-79
2022/03/08 02:31:18;;;;;;;0.40;0.40;;;0.20;99.90;;;;;;5259507;28;20040;-78
2022/03/08 02:33:55;;;;;;;0.40;0.40;;;0.20;99.90;;;;;;5263334;28;20044;-77
2022/03/08 02:36:27;;;;;;;0.50;0.50;;;0.20;99.90;;;;;;5218813;28;20079;-77
2022/03/08 02:39:06;;;;;;;0.40;0.40;;;0.10;99.90;;;;;;5236950;28;20050;-79
2022/03/08 02:41:40;;;;;;;0.77;0.77;;;0.20;99.90;;;;;;5240807;28;20040;-78
2022/03/08 02:44:17;;;;;;;0.40;0.40;;;0.20;99.90;;;;;;5241318;28;20077;-76
2022/03/08 02:46:52;;;;;;;0.33;0.33;;;0.30;99.90;;;;;;5233813;28;20179;-78
2022/03/08 02:49:29;;;;;;;0.60;0.60;;;0.30;99.90;;;;;;5243814;28;20021;-78
2022/03/08 02:52:00;;;;;;;0.70;0.70;;;0.40;99.90;;;;;;5234451;28;20717;-78
2022/03/08 02:54:37;;;;;;;0.82;0.82;;;0.40;99.90;;;;;;5242001;28;20036;-81
2022/03/08 02:57:08;;;;;;;0.57;0.57;;;0.50;99.90;;;;;;5221043;28;20071;-77
2022/03/08 02:59:42;;;;;;;0.70;0.70;;;0.40;99.90;;;;;;5233476;28;20043;-77
2022/03/08 03:02:13;;;;;;;0.50;0.50;;;0.40;99.90;;;;;;5245060;28;20048;-78
2022/03/08 03:04:46;;;;;;;0.50;0.50;;;0.50;99.90;;;;;;5236520;28;20052;-77
2022/03/08 03:07:21;;;;;;;0.52;0.52;;;0.50;99.90;;;;;;5243539;28;20233;-77
2022/03/08 03:09:59;;;;;;;0.47;0.47;;;0.50;99.90;;;;;;5240648;28;20066;-79
2022/03/08 03:12:31;;;;;;;0.30;0.30;;;0.50;99.90;;;;;;5220615;28;20047;-78
2022/03/08 03:15:09;;;;;;;0.40;0.40;;;0.50;99.90;;;;;;5240426;28;20058;-76
2022/03/08 03:17:43;;;;;;;2.25;2.05;;;0.60;99.90;;;;;;5245749;28;20040;-77
2022/03/08 03:20:21;;;;;;;0.70;0.70;;;0.70;99.90;;;;;;5245309;28;20043;-78
2022/03/08 03:22:55;;;;;;;0.52;0.52;;;0.80;99.90;;;;;;5244499;28;20030;-78
2022/03/08 03:25:32;;;;;;;0.63;0.63;;;0.80;99.90;;;;;;5263818;28;20039;-77
2022/03/08 03:28:04;;;;;;;0.60;0.60;;;0.80;99.90;;;;;;5260121;28;20032;-76
2022/03/08 03:30:38;;;;;;;0.60;0.60;;;0.90;99.90;;;;;;5259218;28;20031;-76
2022/03/08 03:33:12;;;;;;;0.40;0.40;;;0.90;99.90;;;;;;5225238;28;20047;-77
2022/03/08 03:35:44;;;;;;;1.10;1.10;;;1.00;99.90;;;;;;5252652;28;20517;-77
2022/03/08 03:38:15;;;;;;;0.85;0.85;;;0.90;99.90;;;;;;5233738;28;20051;-76
2022/03/08 03:40:49;;;;;;;0.73;0.73;;;1.00;99.90;;;;;;5251439;28;20042;-76
2022/03/08 03:43:26;;;;;;;;;;;1.00;99.90;;;;;;5262180;28;20034;-78
2022/03/08 03:45:58;;;;;;;0.50;0.50;;;1.00;99.90;;;;;;5255515;28;19912;-77
2022/03/08 03:48:29;;;;;;;0.70;0.70;;;1.10;99.90;;;;;;5235327;28;20602;-79
2022/03/08 03:51:05;;;;;;;0.50;0.50;;;1.10;99.90;;;;;;5249319;28;20046;-76
2022/03/08 03:53:39;;;;;;;0.40;0.40;;;1.10;99.90;;;;;;5238949;28;20031;-76
2022/03/08 03:56:13;;;;;;;1.05;1.05;;;1.10;99.90;;;;;;5244075;28;20047;-78
2022/03/08 03:58:46;;;;;;;0.45;0.45;;;1.10;99.90;;;;;;5248250;28;20050;-77
2022/03/08 04:01:22;;;;;;;0.70;0.70;;;1.20;99.90;;;;;;5268929;28;20035;-77
2022/03/08 04:03:59;;;;;;;0.80;0.80;;;1.20;99.90;;;;;;5271497;28;20034;-76
2022/03/08 04:06:32;;;;;;;0.85;0.85;;;1.10;99.90;;;;;;5244553;28;20060;-80
2022/03/08 04:09:07;;;;;;;1.17;1.17;;;1.10;99.90;;;;;;5263674;28;20044;-77
2022/03/08 04:11:39;;;;;;;0.52;0.52;;;1.10;99.90;;;;;;5246829;28;20044;-77
2022/03/08 04:14:11;;;;;;;0.68;0.68;;;1.10;99.90;;;;;;5255522;28;20028;-80
2022/03/08 04:16:45;;;;;;;0.60;0.60;;;1.10;99.90;;;;;;5238652;28;20052;-78
2022/03/08 04:19:17;;;;;;;0.60;0.60;;;1.10;99.90;;;;;;5251248;28;20032;-75
2022/03/08 04:21:50;;;;;;;0.85;0.85;;;1.10;99.90;;;;;;5251794;28;20044;-80
2022/03/08 04:24:22;;;;;;;0.40;0.40;;;1.20;99.90;;;;;;5263933;28;20028;-77
2022/03/08 04:26:57;;;;;;;0.50;0.50;;;1.20;99.90;;;;;;5229727;28;20113;-80
2022/03/08 04:29:30;;;;;;;0.60;0.60;;;1.10;99.90;;;;;;5255851;28;20031;-76
2022/03/08 04:32:05;;;;;;;0.50;0.50;;;1.10;99.90;;;;;;5242081;28;20050;-78
2022/03/08 04:34:39;;;;;;;1.10;1.10;;;1.10;99.90;;;;;;5261349;28;20047;-80
2022/03/08 04:37:11;;;;;;;0.55;0.55;;;1.10;99.90;;;;;;5244232;28;20024;-77
2022/03/08 04:39:44;;;;;;;0.52;0.52;;;1.00;99.90;;;;;;5236077;28;20046;-77
2022/03/08 04:42:16;;;;;;;;;;;1.00;99.90;;;;;;5251081;28;20042;-78
2022/03/08 04:44:48;;;;;;;0.45;0.45;;;1.00;99.90;;;;;;5273780;28;19908;-77
2022/03/08 04:47:19;;;;;;;0.40;0.40;;;0.90;99.90;;;;;;5251604;28;20043;-78
2022/03/08 04:49:53;;;;;;;0.57;0.57;;;0.80;99.90;;;;;;5232987;28;20466;-80
2022/03/08 04:52:25;;;;;;;0.52;0.52;;;0.80;99.90;;;;;;5251879;28;20043;-80
2022/03/08 04:54:56;;;;;;;0.38;0.38;;;0.80;99.90;;;;;;5226571;28;20034;-79
2022/03/08 04:57:28;;;;;;;0.40;0.40;;;0.70;99.90;;;;;;5223909;28;20055;-77
2022/03/08 05:00:07;;;;;;;1.23;1.23;;;0.70;99.90;;;;;;5247216;28;20024;-79
2022/03/08 05:02:48;;;;;;;1.45;1.42;;;0.60;99.90;;;;;;5243633;28;20046;-76
2022/03/08 05:05:21;;;;;;;0.65;0.65;;;0.60;99.90;;;;;;5245342;28;20055;-77
2022/03/08 05:07:55;;;;;;;0.70;0.70;;;0.50;99.90;;;;;;5219013;28;20620;-77
2022/03/08 05:10:27;;;;;;;0.57;0.57;;;0.40;99.90;;;;;;5259565;28;20070;-77
2022/03/08 05:13:04;;;;;;;4.57;1.20;;;0.40;99.90;;;;;;5232995;28;20368;-77
2022/03/08 05:15:36;;;;;;;0.50;0.50;;;0.40;99.90;;;;;;5247434;28;20044;-77
2022/03/08 05:18:12;;;;;;;0.88;0.88;;;0.40;99.90;;;;;;5218595;28;20040;-77
2022/03/08 05:20:44;;;;;;;0.60;0.60;;;0.40;99.90;;;;;;5254472;28;20042;-78
2022/03/08 05:23:15;;;;;;;0.55;0.55;;;0.30;99.90;;;;;;5247145;28;20052;-78
2022/03/08 05:25:52;;;;;;;0.52;0.52;;;0.40;99.90;;;;;;5243683;28;20038;-79
2022/03/08 05:28:33;;;;;;;0.50;0.50;;;0.30;99.90;;;;;;5253445;28;20041;-77
2022/03/08 05:31:05;;;;;;;0.52;0.52;;;0.10;99.90;;;;;;5251796;28;20036;-77
2022/03/08 05:33:37;;;;;;;0.40;0.40;;;-0.10;99.90;;;;;;5248027;28;20512;-78
2022/03/08 05:36:13;;;;;;;3.23;2.07;;;-0.10;99.90;;;;;;5255969;28;20030;-79
2022/03/08 05:38:48;;;;;;;0.52;0.52;;;0.00;99.90;;;;;;5233249;28;20038;-78
2022/03/08 05:41:23;;;;;;;0.60;0.60;;;0.10;99.90;;;;;;5254896;28;20047;-79
2022/03/08 05:44:01;;;;;;;0.73;0.73;;;0.20;99.90;;;;;;5244530;28;20040;-78
2022/03/08 05:46:32;;;;;;;0.73;0.73;;;0.40;99.90;;;;;;5258627;28;20030;-78
2022/03/08 05:49:04;;;;;;;0.40;0.40;;;0.50;99.90;;;;;;5241013;28;20533;-80
2022/03/08 05:51:38;;;;;;;0.50;0.50;;;0.50;99.90;;;;;;5218447;28;20033;-76
2022/03/08 05:54:12;;;;;;;1.00;1.00;;;0.50;99.90;;;;;;5238425;28;20046;-77
2022/03/08 05:56:49;;;;;;;0.93;0.93;;;0.50;99.90;;;;;;5246663;28;20036;-78
2022/03/08 05:59:22;;;;;;;1.40;0.80;;;0.60;99.90;;;;;;5265162;28;20038;-77
2022/03/08 06:01:56;;;;;;;0.77;0.77;;;0.70;99.90;;;;;;5259258;28;20046;-77
2022/03/08 06:04:30;;;;;;;1.00;1.00;;;0.80;99.90;;;;;;5245153;28;20036;-80
2022/03/08 06:07:02;;;;;;;0.80;0.80;;;0.90;99.90;;;;;;5245176;28;20089;-77
2022/03/08 06:09:36;;;;;;;0.40;0.40;;;0.90;99.90;;;;;;5257867;28;20535;-79
2022/03/08 06:12:14;;;;;;;0.63;0.63;;;1.00;99.90;;;;;;5242872;28;20040;-77
2022/03/08 06:14:48;;;;;;;0.60;0.60;;;1.00;99.90;;;;;;5225358;28;20036;-77
2022/03/08 06:17:21;;;;;;;0.70;0.70;;;1.00;99.90;;;;;;5248482;28;20570;-74
2022/03/08 06:19:55;;;;;;;0.60;0.60;;;1.10;99.90;;;;;;5250314;28;20047;-75
2022/03/08 06:22:29;;;;;;;0.77;0.77;;;1.10;99.90;;;;;;5269224;28;20027;-74
2022/03/08 06:25:01;;;;;;;0.50;0.50;;;1.30;99.90;;;;;;5250028;28;20031;-76
2022/03/08 06:27:35;;;;;;;0.50;0.50;;;1.30;99.90;;;;;;5247795;28;20590;-77
2022/03/08 06:30:08;;;;;;;0.60;0.60;;;1.40;99.90;;;;;;5258091;28;20058;-76
2022/03/08 06:32:42;;;;;;;0.40;0.40;;;1.40;99.90;;;;;;5226824;28;20050;-74
2022/03/08 06:35:18;;;;;;;0.50;0.50;;;1.50;99.90;;;;;;5238335;28;20036;-75
2022/03/08 06:37:51;;;;;;;0.68;0.68;;;1.60;99.90;;;;;;5236866;28;20032;-76
2022/03/08 06:40:28;;;;;;;0.50;0.50;;;1.70;99.90;;;;;;5250922;28;20023;-74
2022/03/08 06:43:00;;;;;;;0.57;0.57;;;1.70;99.90;;;;;;5227340;28;20044;-75
2022/03/08 06:45:31;;;;;;;0.60;0.60;;;1.80;99.90;;;;;;5257536;28;20324;-79
2022/03/08 06:48:06;;;;;;;0.65;0.65;;;1.80;99.90;;;;;;5242360;28;20063;-74
2022/03/08 06:50:40;;;;;;;0.52;0.52;;;1.90;99.90;;;;;;5230358;28;20044;-76
2022/03/08 06:53:14;;;;;;;0.50;0.50;;;2.00;99.90;;;;;;5244667;28;20054;-77
2022/03/08 06:55:46;;;;;;;0.50;0.50;;;2.00;99.90;;;;;;5260678;28;20044;-77
2022/03/08 06:58:19;;;;;;;0.95;0.95;;;2.10;99.90;;;;;;5248614;28;20562;-75
2022/03/08 07:00:54;;;;;;;0.50;0.50;;;2.10;99.90;;;;;;5241886;28;20039;-75
2022/03/08 07:03:26;;;;;;;0.40;0.40;;;2.20;99.90;;;;;;5210695;28;20039;-78
2022/03/08 07:06:00;;;;;;;0.40;0.40;;;2.20;99.90;;;;;;5237321;28;20048;-77
2022/03/08 07:08:31;;;;;;;0.60;0.60;;;2.20;99.90;;;;;;5235652;28;20043;-76
2022/03/08 07:11:07;;;;;;;0.65;0.65;;;2.40;99.90;;;;;;5249877;28;20048;-77
2022/03/08 07:13:41;;;;;;;0.70;0.70;;;2.40;99.90;;;;;;5245975;28;20040;-76
2022/03/08 07:16:12;;;;;;;0.68;0.68;;;2.50;99.90;;;;;;5240749;28;20153;-76
2022/03/08 07:18:44;;;;;;;0.60;0.60;;;2.60;99.90;;;;;;5262768;28;20036;-80
2022/03/08 07:21:18;;;;;;;0.40;0.40;;;2.60;99.90;;;;;;5259276;28;20043;-77
2022/03/08 07:23:50;;;;;;;0.57;0.57;;;2.60;99.90;;;;;;5250012;28;20036;-79
2022/03/08 07:26:22;;;;;;;0.80;0.80;;;2.60;99.90;;;;;;5241070;28;20034;-77
2022/03/08 07:28:54;;;;;;;1.05;1.05;;;2.70;99.90;;;;;;5251887;28;20028;-78
2022/03/08 07:31:35;;;;;;;1.02;1.02;;;2.80;99.90;;;;;;5236471;28;20103;-80
2022/03/08 07:34:07;;;;;;;1.35;1.35;;;2.90;99.90;;;;;;5251255;28;20038;-78
2022/03/08 07:36:38;;;;;;;1.15;1.15;;;3.00;99.90;;;;;;5255798;28;20044;-78
2022/03/08 07:39:10;;;;;;;1.00;1.00;;;3.10;99.90;;;;;;5259784;28;20056;-76
2022/03/08 07:41:45;;;;;;;0.50;0.50;;;3.10;99.90;;;;;;5265493;28;20031;-77
2022/03/08 07:44:16;;;;;;;0.80;0.80;;;3.30;99.90;;;;;;5229394;28;20036;-77
2022/03/08 07:46:50;;;;;;;0.60;0.60;;;3.20;99.90;;;;;;5238432;28;20474;-78
2022/03/08 07:49:25;;;;;;;0.80;0.80;;;3.20;99.90;;;;;;5262197;28;20042;-77
2022/03/08 07:51:59;;;;;;;1.45;1.42;;;3.30;99.90;;;;;;5243862;28;20067;-78
2022/03/08 07:54:31;;;;;;;0.60;0.60;;;3.40;99.90;;;;;;5244413;28;20478;-77
2022/03/08 07:57:03;;;;;;;0.57;0.57;;;3.40;99.90;;;;;;5255358;28;20032;-78
2022/03/08 07:59:35;;;;;;;1.92;1.77;;;3.40;99.90;;;;;;5248374;28;20051;-77
2022/03/08 08:02:07;;;;;;;1.08;1.08;;;3.50;99.90;;;;;;5248033;28;20153;-78
2022/03/08 08:04:41;;;;;;;0.45;0.45;;;3.50;99.90;;;;;;5239143;28;20055;-78
2022/03/08 08:07:13;;;;;;;0.60;0.60;;;3.70;99.90;;;;;;5262127;28;20030;-77
2022/03/08 08:09:45;;;;;;;0.85;0.85;;;3.90;99.90;;;;;;5260031;28;20040;-79
2022/03/08 08:12:19;;;;;;;0.93;0.93;;;3.90;99.90;;;;;;5228190;28;20048;-78
2022/03/08 08:14:50;;;;;;;0.57;0.57;;;4.00;99.90;;;;;;5236436;28;20039;-78
2022/03/08 08:17:22;;;;;;;0.43;0.43;;;4.10;99.90;;;;;;5270644;28;20367;-80
2022/03/08 08:19:53;;;;;;;0.40;0.40;;;4.30;99.90;;;;;;5261066;28;20031;-78
2022/03/08 08:22:25;;;;;;;0.60;0.60;;;4.30;99.90;;;;;;5245206;28;20046;-79
2022/03/08 08:24:59;;;;;;;0.50;0.50;;;4.60;99.90;;;;;;5244565;28;20024;-78
2022/03/08 08:27:30;;;;;;;0.50;0.50;;;4.80;99.90;;;;;;5232204;28;20031;-77
2022/03/08 08:30:05;;;;;;;0.95;0.95;;;4.50;99.90;;;;;;5263569;28;20050;-78
2022/03/08 08:32:38;;;;;;;1.08;1.08;;;4.70;99.90;;;;;;5233664;28;20050;-77
2022/03/08 08:35:13;;;;;;;0.57;0.57;;;5.00;99.90;;;;;;5242456;28;20028;-79
2022/03/08 08:37:47;;;;;;;0.88;0.88;;;5.00;99.90;;;;;;5240499;28;20035;-78
2022/03/08 08:40:19;;;;;;;1.13;1.00;;;4.90;99.90;;;;;;5266227;28;20044;-78
2022/03/08 08:42:50;;;;;;;1.38;1.27;;;4.80;99.90;;;;;;5249950;28;20696;-78
2022/03/08 08:45:22;;;;;;;0.88;0.88;;;4.80;99.90;;;;;;5261844;28;20035;-78
2022/03/08 08:47:53;;;;;;;1.15;1.15;;;4.80;99.90;;;;;;5245420;28;20019;-77
2022/03/08 08:50:25;;;;;;;0.60;0.60;;;4.80;99.90;;;;;;5252918;28;20058;-76
2022/03/08 08:52:56;;;;;;;0.68;0.68;;;4.80;99.90;;;;;;5266512;28;20028;-78
2022/03/08 08:55:28;;;;;;;0.70;0.70;;;4.90;99.90;;;;;;5269609;28;20036;-77
2022/03/08 08:58:05;;;;;;;0.80;0.80;;;5.00;99.90;;;;;;5266601;28;20028;-77
2022/03/08 09:00:39;;;;;;;0.68;0.68;;;5.00;99.90;;;;;;5240358;28;20046;-78
2022/03/08 09:03:14;;;;;;;0.82;0.82;;;4.90;99.90;;;;;;5249950;28;20024;-78
2022/03/08 09:05:48;;;;;;;0.50;0.50;;;5.20;99.90;;;;;;5221329;28;20064;-77
2022/03/08 09:08:24;;;;;;;3.60;1.15;;;5.20;99.90;;;;;;5232533;28;20035;-79
2022/03/08 09:10:55;;;;;;;1.02;1.02;;;5.00;99.90;;;;;;5237292;28;20396;-78
2022/03/08 09:13:30;;;;;;;0.50;0.50;;;5.20;99.90;;;;;;5264244;28;20640;-79
2022/03/08 09:16:03;;;;;;;0.68;0.68;;;5.60;99.90;;;;;;5266466;28;20467;-78
2022/03/08 09:18:35;;;;;;;0.70;0.70;;;5.60;99.90;;;;;;5267670;28;20044;-76
2022/03/08 09:21:06;;;;;;;0.60;0.60;;;5.50;99.90;;;;;;5270131;28;20046;-77
2022/03/08 09:23:42;;;;;;;0.50;0.50;;;5.90;99.90;;;;;;5265664;28;20084;-77
2022/03/08 09:26:13;;;;;;;1.45;1.38;;;5.80;99.90;;;;;;5259213;28;20343;-79
2022/03/08 09:28:47;;;;;;;0.50;0.50;;;5.80;99.90;;;;;;5241783;28;20041;-78
2022/03/08 09:31:19;;;;;;;0.65;0.65;;;6.50;99.90;;;;;;5250960;28;20035;-79
2022/03/08 09:33:50;;;;;;;0.60;0.60;;;6.70;99.90;;;;;;5239386;28;20036;-79
2022/03/08 09:36:26;;;;;;;0.75;0.75;;;6.10;99.90;;;;;;5229224;28;20048;-78
2022/03/08 09:39:00;;;;;;;0.40;0.40;;;6.00;99.90;;;;;;5243476;28;20032;-78
2022/03/08 09:41:31;;;;;;;0.90;0.90;;;6.00;99.90;;;;;;5244145;28;20036;-78
2022/03/08 09:44:10;;;;;;;0.80;0.80;;;6.20;99.90;;;;;;5243964;28;20573;-76
2022/03/08 09:46:45;;;;;;;0.95;0.95;;;6.40;99.90;;;;;;5262628;28;20030;-77
2022/03/08 09:49:19;;;;;;;0.65;0.65;;;6.30;99.90;;;;;;5236705;28;20044;-76
2022/03/08 09:51:54;;;;;;;;;;;6.50;99.90;;;;;;5216985;28;20049;-75
2022/03/08 09:54:25;;;;;;;0.50;0.50;;;6.00;99.90;;;;;;5245222;28;19920;-76
2022/03/08 09:56:56;;;;;;;1.42;1.40;;;6.10;99.90;;;;;;5251084;28;20069;-77
2022/03/08 09:59:29;;;;;;;0.65;0.65;;;6.10;99.90;;;;;;5259640;28;20042;-76
2022/03/08 10:02:01;;;;;;;1.70;1.35;;;6.40;99.90;;;;;;5256839;28;20052;-75
2022/03/08 10:04:34;;;;;;;0.70;0.70;;;6.80;99.90;;;;;;5228134;28;20457;-77
2022/03/08 10:07:15;;;;;;;1.02;1.02;;;6.90;99.90;;;;;;5247149;28;20036;-78
2022/03/08 10:09:58;;;;;;;0.60;0.60;;;6.80;99.90;;;;;;5205431;28;20047;-77
2022/03/08 10:12:35;;;;;;;0.85;0.85;;;7.20;99.90;;;;;;5253422;28;20048;-77
2022/03/08 10:15:18;;;;;;;0.88;0.88;;;7.60;99.90;;;;;;5251733;28;20036;-79
2022/03/08 10:17:52;;;;;;;0.93;0.93;;;7.40;99.90;;;;;;5239606;28;20040;-78
2022/03/08 10:20:30;;;;;;;0.70;0.70;;;6.70;99.90;;;;;;5255611;28;20040;-77
2022/03/08 10:23:14;;;;;;;0.68;0.68;;;7.30;99.90;;;;;;5246057;28;20472;-79
2022/03/08 10:25:45;;;;;;;0.47;0.47;;;8.30;99.90;;;;;;5236789;28;20039;-78
2022/03/08 10:28:22;;;;;;;0.80;0.80;;;7.30;99.90;;;;;;5246211;28;20050;-77
2022/03/08 10:30:53;;;;;;;0.60;0.60;;;7.30;99.90;;;;;;5264582;28;20433;-78
2022/03/08 10:33:38;;;;;;;0.95;0.95;;;8.50;99.90;;;;;;5263895;28;20336;-76
2022/03/08 10:36:26;;;;;;;0.63;0.63;;;8.10;99.90;;;;;;5252012;28;20048;-77
2022/03/08 10:39:19;;;;;;;0.60;0.60;;;6.70;99.90;;;;;;5225076;28;20047;-78
2022/03/08 10:41:59;;;;;;;0.60;0.60;;;6.50;99.90;;;;;;5231337;28;20039;-79
2022/03/08 10:44:44;;;;;;;0.63;0.63;;;6.70;99.90;;;;;;5249923;28;20233;-78
2022/03/08 10:47:17;;;;;;;0.50;0.50;;;6.90;99.90;;;;;;5246864;28;20051;-77
2022/03/08 10:50:00;;;;;;;1.05;1.05;;;7.10;99.90;;;;;;5263768;28;20028;-79
2022/03/08 10:52:45;;;;;;;0.50;0.50;;;7.10;99.90;;;;;;5234854;28;20051;-78
2022/03/08 10:55:25;;;;;;;0.70;0.70;;;6.70;99.90;;;;;;5249592;28;20031;-77
2022/03/08 10:58:05;;;;;;;0.73;0.73;;;6.90;99.90;;;;;;5248431;28;20062;-79
2022/03/08 11:01:01;;;;;;;0.68;0.68;;;9.10;99.90;;;;;;5245854;28;20031;-77
2022/03/08 11:03:35;;;;;;;1.30;0.90;;;10.40;99.90;;;;;;5223672;28;20048;-77
2022/03/08 11:06:12;;;;;;;;;;;9.50;99.90;;;;;;5227899;28;20066;-76
2022/03/08 11:08:49;;;;;;;0.93;0.93;;;9.00;99.90;;;;;;5237831;28;19920;-77
2022/03/08 11:11:23;;;;;;;0.90;0.90;;;8.40;99.90;;;;;;5247672;28;20058;-77
2022/03/08 11:13:54;;;;;;;0.90;0.90;;;9.40;99.90;;;;;;5231720;28;20042;-76
2022/03/08 11:16:28;;;;;;;0.90;0.90;;;10.90;99.90;;;;;;5254846;28;20058;-78
2022/03/08 11:19:05;;;;;;;0.50;0.50;;;9.80;99.90;;;;;;5233850;28;20043;-77
2022/03/08 11:21:37;;;;;;;0.88;0.88;;;8.20;99.90;;;;;;5230311;28;20617;-77
2022/03/08 11:24:11;;;;;;;1.10;1.10;;;9.30;99.90;;;;;;5257070;28;20466;-77
2022/03/08 11:26:44;;;;;;;2.03;1.92;;;10.10;99.90;;;;;;5241579;28;20041;-76
2022/03/08 11:29:18;;;;;;;0.90;0.90;;;8.90;99.90;;;;;;5238848;28;20044;-76
2022/03/08 11:31:55;;;;;;;1.17;1.17;;;9.60;99.90;;;;;;5223319;28;20038;-76
2022/03/08 11:34:39;;;;;;;1.67;1.60;;;11.80;99.90;;;;;;5235949;28;20028;-75
2022/03/08 11:37:26;;;;;;;0.80;0.80;;;12.70;99.90;;;;;;5227538;28;20506;-75
2022/03/08 11:40:17;;;;;;;1.00;1.00;;;11.50;99.90;;;;;;5254041;28;20031;-77
2022/03/08 11:42:54;;;;;;;1.08;1.08;;;9.00;99.90;;;;;;5255661;28;20043;-76
2022/03/08 11:45:31;;;;;;;1.27;1.27;;;8.70;99.90;;;;;;5235612;28;20032;-77
2022/03/08 11:48:11;;;;;;;0.90;0.90;;;9.50;99.90;;;;;;5239595;28;20463;-76
2022/03/08 11:50:46;;;;;;;0.70;0.70;;;10.70;99.90;;;;;;5235440;28;20612;-77
2022/03/08 11:53:29;;;;;;;0.80;0.80;;;11.20;99.90;;;;;;5221573;28;20456;-75
2022/03/08 11:56:00;;;;;;;0.70;0.70;;;10.50;99.90;;;;;;5227283;28;20608;-75
2022/03/08 11:58:56;;;;;;;1.70;1.60;;;9.30;99.90;;;;;;5230517;28;20394;-76
2022/03/08 12:01:36;;;;;;;0.80;0.80;;;8.50;99.90;;;;;;5238328;28;20036;-75
2022/03/08 12:04:12;;;;;;;0.63;0.63;;;8.20;99.90;;;;;;5220716;28;20044;-76
2022/03/08 12:07:04;;;;;;;0.85;0.85;;;8.40;99.90;;;;;;5207919;28;20048;-75
2022/03/08 12:09:38;;;;;;;0.60;0.60;;;10.90;99.90;;;;;;5229235;28;20043;-75
2022/03/08 12:12:10;;;;;;;0.70;0.70;;;11.30;99.90;;;;;;5237290;28;20047;-77
2022/03/08 12:14:41;;;;;;;0.90;0.90;;;9.80;99.90;;;;;;5259727;28;20040;-76
2022/03/08 12:17:20;;;;;;;1.45;1.45;;;8.90;99.90;;;;;;5249513;28;20440;-77
2022/03/08 12:19:59;;;;;;;1.10;1.10;;;8.70;99.90;;;;;;5253948;28;20048;-78
2022/03/08 12:22:34;;;;;;;0.57;0.57;;;8.20;99.90;;;;;;5260375;28;20043;-79
2022/03/08 12:25:15;;;;;;;0.82;0.82;;;8.00;99.90;;;;;;5263614;28;20036;-78
2022/03/08 12:27:50;;;;;;;0.60;0.60;;;7.90;99.90;;;;;;5263734;28;20054;-78
2022/03/08 12:30:42;;;;;;;1.60;1.50;;;9.00;99.90;;;;;;5227458;28;20043;-79
2022/03/08 12:33:16;;;;;;;0.70;0.70;;;11.30;99.90;;;;;;5245020;28;20040;-78
2022/03/08 12:35:52;;;;;;;2.53;2.33;;;12.80;99.90;;;;;;5263726;28;20054;-78
2022/03/08 12:38:41;;;;;;;0.70;0.70;;;13.30;99.90;;;;;;5258213;28;20032;-78
2022/03/08 12:41:17;;;;;;;0.70;0.70;;;12.30;99.90;;;;;;5244806;28;20039;-78
2022/03/08 12:44:01;;;;;;;9.88;2.35;;;12.20;99.90;;;;;;5260544;28;20466;-77
2022/03/08 12:46:33;;;;;;;1.00;1.00;;;10.70;99.90;;;;;;5242414;28;20040;-79
2022/03/08 12:49:06;;;;;;;1.30;1.30;;;10.10;99.90;;;;;;5236081;28;20044;-79
2022/03/08 12:51:41;;;;;;;1.73;1.63;;;11.00;99.90;;;;;;5234924;28;20040;-77
2022/03/08 12:54:13;;;;;;;0.88;0.88;;;12.00;99.90;;;;;;5240896;28;20457;-79
2022/03/08 12:56:45;;;;;;;1.00;1.00;;;11.60;99.90;;;;;;5235910;28;20040;-77
2022/03/08 12:59:17;;;;;;;0.75;0.75;;;12.60;99.90;;;;;;5268596;28;20031;-78
2022/03/08 13:01:48;;;;;;;0.90;0.90;;;12.30;99.90;;;;;;5256802;28;20369;-76
2022/03/08 13:04:24;;;;;;;0.95;0.95;;;12.80;99.90;;;;;;5237414;28;20539;-79
2022/03/08 13:07:22;;;;;;;0.82;0.82;;;13.50;99.90;;;;;;5231176;28;20030;-77
2022/03/08 13:10:00;;;;;;;1.23;1.23;;;12.60;99.90;;;;;;5264268;28;20035;-77
2022/03/08 13:12:32;;;;;;;1.48;1.48;;;10.50;99.90;;;;;;5256141;28;20046;-79
2022/03/08 13:15:20;;;;;;;1.42;1.42;;;9.70;99.90;;;;;;5270718;28;20043;-77
2022/03/08 13:17:57;;;;;;;1.27;1.17;;;9.30;99.90;;;;;;5255503;28;20024;-76
2022/03/08 13:20:43;;;;;;;1.17;1.13;;;10.30;99.90;;;;;;5245831;28;20062;-77
2022/03/08 13:23:34;;;;;;;0.80;0.80;;;11.00;99.90;;;;;;5228433;28;20058;-78
2022/03/08 13:26:11;;;;;;;0.70;0.70;;;12.90;99.90;;;;;;5248566;28;20041;-78
2022/03/08 13:28:48;;;;;;;0.77;0.77;;;13.30;99.90;;;;;;5253106;28;20040;-77
2022/03/08 13:31:25;;;;;;;1.15;1.15;;;12.20;99.90;;;;;;5268734;28;20038;-78
2022/03/08 13:34:00;;;;;;;0.80;0.80;;;11.80;99.90;;;;;;5248490;28;20033;-77
2022/03/08 13:36:32;;;;;;;0.65;0.65;;;11.90;99.90;;;;;;5241581;28;20052;-77
2022/03/08 13:39:04;;;;;;;0.90;0.90;;;12.50;99.90;;;;;;5243870;28;20030;-76